createdAt,value
2024-05-09T00:00:29.914Z,91.6598
2024-05-09T00:01:23.495Z,91.6622
2024-05-09T00:02:25.312Z,91.6447
2024-05-09T00:03:27.051Z,91.4887
2024-05-09T00:04:28.728Z,91.4020
2024-05-09T00:05:30.608Z,91.3560
2024-05-09T00:06:32.320Z,91.5174
2024-05-09T00:07:34.060Z,91.6684
2024-05-09T00:08:35.879Z,91.7544
2024-05-09T00:09:37.882Z,91.8260
2024-05-09T00:10:40.657Z,91.8467
2024-05-09T00:11:40.678Z,91.9528
2024-05-09T00:12:42.439Z,91.9391
2024-05-09T00:13:44.338Z,91.9299
2024-05-09T00:14:45.960Z,91.9275
2024-05-09T00:15:47.589Z,91.9437
2024-05-09T00:16:49.312Z,91.9308
2024-05-09T00:17:51.634Z,91.8711
2024-05-09T00:18:54.297Z,91.8347
2024-05-09T00:19:56.166Z,91.8484
2024-05-09T00:20:57.942Z,91.7325
2024-05-09T00:21:59.640Z,91.6019
2024-05-09T00:23:01.458Z,91.6336
2024-05-09T00:24:03.233Z,91.6415
2024-05-09T00:25:04.871Z,91.6544
2024-05-09T00:26:06.634Z,91.6503
2024-05-09T00:27:08.945Z,91.6811
2024-05-09T00:28:09.131Z,91.7846
2024-05-09T00:29:10.778Z,91.8247
2024-05-09T00:30:17.824Z,91.9071
2024-05-09T00:31:14.527Z,92.0082
2024-05-09T00:32:16.362Z,92.0449
2024-05-09T00:33:18.377Z,92.1341
2024-05-09T00:34:20.327Z,92.2050
2024-05-09T00:35:22.266Z,92.3253
2024-05-09T00:36:24.240Z,92.3799
2024-05-09T00:37:26.051Z,92.3975
2024-05-09T00:38:27.868Z,92.3925
2024-05-09T00:39:29.614Z,92.4659
2024-05-09T00:40:38.586Z,92.5727
2024-05-09T00:41:33.413Z,92.6796
2024-05-09T00:42:35.178Z,92.7284
2024-05-09T00:43:36.948Z,92.7657
2024-05-09T00:44:38.662Z,92.8326
2024-05-09T00:45:40.423Z,92.8516
2024-05-09T00:46:42.141Z,92.7942
2024-05-09T00:47:44.441Z,92.7509
2024-05-09T00:48:46.464Z,92.6560
2024-05-09T00:49:48.497Z,92.5629
2024-05-09T00:50:50.305Z,92.4878
2024-05-09T00:51:52.211Z,92.4402
2024-05-09T00:52:53.846Z,92.3529
2024-05-09T00:53:55.938Z,92.3081
2024-05-09T00:54:57.638Z,92.3151
2024-05-09T00:55:59.404Z,92.2508
2024-05-09T00:57:01.057Z,92.1372
2024-05-09T00:58:02.881Z,92.0504
2024-05-09T00:59:04.672Z,92.0863
2024-05-09T01:00:12.079Z,91.9423
2024-05-09T01:01:08.561Z,91.7292
2024-05-09T01:02:10.440Z,91.7162
2024-05-09T01:03:13.904Z,91.7255
2024-05-09T01:04:13.581Z,91.6948
2024-05-09T01:05:15.394Z,91.5251
2024-05-09T01:06:17.269Z,91.5244
2024-05-09T01:07:19.051Z,91.5572
2024-05-09T01:08:21.045Z,91.5319
2024-05-09T01:09:22.911Z,91.4622
2024-05-09T01:10:32.210Z,91.3802
2024-05-09T01:11:26.917Z,91.3161
2024-05-09T01:12:28.846Z,91.2827
2024-05-09T01:13:30.538Z,91.3022
2024-05-09T01:14:32.444Z,91.2323
2024-05-09T01:15:34.215Z,91.0318
2024-05-09T01:16:36.162Z,91.0456
2024-05-09T01:17:38.082Z,91.1158
2024-05-09T01:18:40.032Z,91.1420
2024-05-09T01:19:41.941Z,91.0296
2024-05-09T01:20:45.313Z,91.1258
2024-05-09T01:21:44.676Z,91.1089
2024-05-09T01:22:46.423Z,91.1395
2024-05-09T01:23:48.115Z,91.2338
2024-05-09T01:24:49.977Z,91.2256
2024-05-09T01:25:51.679Z,91.1561
2024-05-09T01:26:53.472Z,90.9889
2024-05-09T01:27:55.223Z,91.0446
2024-05-09T01:28:56.972Z,90.9139
2024-05-09T01:29:58.748Z,90.9212
2024-05-09T01:31:00.464Z,90.8700
2024-05-09T01:32:02.320Z,90.9464
2024-05-09T01:33:04.957Z,91.0186
2024-05-09T01:34:04.937Z,90.9884
2024-05-09T01:35:06.653Z,91.0387
2024-05-09T01:36:08.594Z,91.0813
2024-05-09T01:37:10.363Z,91.0579
2024-05-09T01:38:12.312Z,91.1278
2024-05-09T01:39:14.209Z,91.1154
2024-05-09T01:40:21.961Z,91.0667
2024-05-09T01:41:18.078Z,91.0980
2024-05-09T01:42:19.782Z,91.1029
2024-05-09T01:43:21.590Z,90.9981
2024-05-09T01:44:23.412Z,91.0437
2024-05-09T01:45:25.116Z,91.0281
2024-05-09T01:46:26.846Z,90.9780
2024-05-09T01:47:28.632Z,90.8527
2024-05-09T01:48:30.463Z,90.8448
2024-05-09T01:49:32.277Z,90.8268
2024-05-09T01:50:39.108Z,91.0240
2024-05-09T01:51:36.288Z,91.0861
2024-05-09T01:52:38.030Z,90.9184
2024-05-09T01:53:39.856Z,90.8116
2024-05-09T01:54:41.617Z,90.8636
2024-05-09T01:55:43.591Z,90.8490
2024-05-09T01:56:45.406Z,90.7598
2024-05-09T01:57:47.157Z,90.6934
2024-05-09T01:58:48.926Z,90.6905
2024-05-09T01:59:50.692Z,90.7034
2024-05-09T02:00:52.616Z,90.7989
2024-05-09T02:01:57.004Z,90.8816
2024-05-09T02:02:56.921Z,90.8823
2024-05-09T02:03:59.065Z,90.8318
2024-05-09T02:05:01.239Z,90.7286
2024-05-09T02:06:03.162Z,90.7872
2024-05-09T02:07:04.930Z,90.9184
2024-05-09T02:08:06.717Z,90.9356
2024-05-09T02:09:08.370Z,91.0298
2024-05-09T02:10:16.533Z,91.0101
2024-05-09T02:11:12.442Z,90.9354
2024-05-09T02:12:14.608Z,90.7892
2024-05-09T02:13:16.729Z,90.7752
2024-05-09T02:14:18.552Z,90.8160
2024-05-09T02:15:20.287Z,90.8363
2024-05-09T02:16:22.044Z,90.9205
2024-05-09T02:17:23.908Z,90.9151
2024-05-09T02:18:25.807Z,90.8260
2024-05-09T02:19:27.710Z,90.7723
2024-05-09T02:20:34.185Z,90.8284
2024-05-09T02:21:31.831Z,90.7844
2024-05-09T02:22:33.569Z,90.7453
2024-05-09T02:23:35.353Z,90.7654
2024-05-09T02:24:37.137Z,90.7590
2024-05-09T02:25:38.891Z,90.8565
2024-05-09T02:26:40.752Z,90.8824
2024-05-09T02:27:42.458Z,90.9241
2024-05-09T02:28:44.161Z,91.0340
2024-05-09T02:29:45.825Z,90.9305
2024-05-09T02:30:47.560Z,90.9086
2024-05-09T02:31:49.542Z,91.0018
2024-05-09T02:32:51.450Z,91.0905
2024-05-09T02:33:53.438Z,91.1779
2024-05-09T02:34:55.393Z,91.1844
2024-05-09T02:35:57.083Z,91.1524
2024-05-09T02:36:58.910Z,91.1785
2024-05-09T02:38:00.953Z,91.3189
2024-05-09T02:39:02.740Z,91.3555
2024-05-09T02:40:05.648Z,91.3028
2024-05-09T02:41:04.770Z,91.2604
2024-05-09T02:42:06.455Z,91.3388
2024-05-09T02:43:09.314Z,91.3972
2024-05-09T02:44:09.750Z,91.4313
2024-05-09T02:45:11.698Z,91.3540
2024-05-09T02:46:13.411Z,91.3724
2024-05-09T02:47:15.248Z,91.4784
2024-05-09T02:48:17.056Z,91.4864
2024-05-09T02:49:19.112Z,91.4885
2024-05-09T02:50:29.712Z,91.4985
2024-05-09T02:51:23.179Z,91.5504
2024-05-09T02:52:24.921Z,91.5736
2024-05-09T02:53:26.819Z,91.5439
2024-05-09T02:54:28.538Z,91.5783
2024-05-09T02:55:30.254Z,91.6039
2024-05-09T02:56:32.005Z,91.6228
2024-05-09T02:57:33.781Z,91.6863
2024-05-09T02:58:35.485Z,91.6813
2024-05-09T02:59:37.326Z,91.6879
2024-05-09T03:00:41.505Z,91.6868
2024-05-09T03:01:39.332Z,91.6444
2024-05-09T03:02:41.117Z,91.6904
2024-05-09T03:03:43.109Z,91.7332
2024-05-09T03:04:45.175Z,91.7424
2024-05-09T03:05:47.147Z,91.7470
2024-05-09T03:06:48.949Z,91.6290
2024-05-09T03:07:50.746Z,91.6451
2024-05-09T03:08:52.511Z,91.6316
2024-05-09T03:09:54.220Z,91.6743
2024-05-09T03:10:56.139Z,91.6505
2024-05-09T03:11:57.951Z,91.7724
2024-05-09T03:12:59.815Z,91.7504
2024-05-09T03:14:01.574Z,91.7236
2024-05-09T03:15:03.324Z,91.7347
2024-05-09T03:16:05.126Z,91.6862
2024-05-09T03:17:07.018Z,91.7051
2024-05-09T03:18:08.885Z,91.7542
2024-05-09T03:19:11.018Z,91.7544
2024-05-09T03:20:20.483Z,91.7060
2024-05-09T03:21:14.974Z,91.6605
2024-05-09T03:22:16.612Z,91.6059
2024-05-09T03:23:18.428Z,91.6288
2024-05-09T03:24:20.137Z,91.6172
2024-05-09T03:25:21.872Z,91.5941
2024-05-09T03:26:23.804Z,91.6737
2024-05-09T03:27:25.580Z,91.7532
2024-05-09T03:28:27.248Z,91.7974
2024-05-09T03:29:29.009Z,91.7739
2024-05-09T03:30:39.419Z,91.7538
2024-05-09T03:31:32.855Z,91.8269
2024-05-09T03:32:34.688Z,91.9600
2024-05-09T03:33:36.860Z,91.9333
2024-05-09T03:34:39.023Z,91.8803
2024-05-09T03:35:40.936Z,91.8891
2024-05-09T03:36:42.727Z,91.8476
2024-05-09T03:37:44.465Z,91.8454
2024-05-09T03:38:46.260Z,91.8599
2024-05-09T03:39:47.927Z,91.8347
2024-05-09T03:40:50.371Z,91.8327
2024-05-09T03:41:50.051Z,91.8648
2024-05-09T03:42:51.818Z,91.8879
2024-05-09T03:43:53.589Z,91.9229
2024-05-09T03:44:55.309Z,91.9354
2024-05-09T03:45:57.044Z,91.7943
2024-05-09T03:46:58.972Z,91.8397
2024-05-09T03:48:00.816Z,91.8986
2024-05-09T03:49:02.787Z,91.8811
2024-05-09T03:50:05.608Z,91.9326
2024-05-09T03:51:05.037Z,91.9237
2024-05-09T03:52:06.782Z,91.9464
2024-05-09T03:53:08.582Z,91.9187
2024-05-09T03:54:10.223Z,91.9237
2024-05-09T03:55:12.042Z,91.9502
2024-05-09T03:56:13.777Z,91.9706
2024-05-09T03:57:15.549Z,91.9783
2024-05-09T03:58:17.261Z,91.9606
2024-05-09T03:59:19.060Z,91.9907
2024-05-09T04:00:30.463Z,92.0180
2024-05-09T04:01:22.876Z,92.0342
2024-05-09T04:02:24.641Z,92.1060
2024-05-09T04:03:26.878Z,92.1213
2024-05-09T04:04:28.902Z,92.2433
2024-05-09T04:05:30.918Z,92.2508
2024-05-09T04:06:32.973Z,92.1786
2024-05-09T04:07:34.698Z,92.1787
2024-05-09T04:08:36.605Z,92.1357
2024-05-09T04:09:38.544Z,92.1155
2024-05-09T04:10:40.317Z,92.0832
2024-05-09T04:11:42.140Z,92.0182
2024-05-09T04:12:43.855Z,91.9518
2024-05-09T04:13:45.636Z,91.8084
2024-05-09T04:14:47.429Z,91.6872
2024-05-09T04:15:49.171Z,91.6123
2024-05-09T04:16:50.935Z,91.4535
2024-05-09T04:17:52.877Z,91.3800
2024-05-09T04:18:54.834Z,91.2689
2024-05-09T04:19:56.574Z,91.1953
2024-05-09T04:20:58.328Z,91.3594
2024-05-09T04:22:00.052Z,91.3984
2024-05-09T04:23:01.811Z,91.3031
2024-05-09T04:24:03.597Z,91.3467
2024-05-09T04:25:05.290Z,91.3051
2024-05-09T04:26:07.068Z,91.3545
2024-05-09T04:27:08.760Z,91.2813
2024-05-09T04:28:10.485Z,91.1924
2024-05-09T04:29:12.443Z,91.2244
2024-05-09T04:30:21.702Z,91.1050
2024-05-09T04:31:16.289Z,91.1131
2024-05-09T04:32:18.037Z,91.2044
2024-05-09T04:33:20.345Z,91.2637
2024-05-09T04:34:22.671Z,91.1650
2024-05-09T04:35:24.767Z,91.1920
2024-05-09T04:36:26.594Z,91.2445
2024-05-09T04:37:28.308Z,91.2849
2024-05-09T04:38:30.028Z,91.2184
2024-05-09T04:39:31.855Z,91.1489
2024-05-09T04:40:36.199Z,91.1128
2024-05-09T04:41:36.356Z,91.1288
2024-05-09T04:42:38.126Z,91.1264
2024-05-09T04:43:39.810Z,91.1535
2024-05-09T04:44:41.657Z,91.2362
2024-05-09T04:45:43.364Z,91.0891
2024-05-09T04:46:45.177Z,90.8954
2024-05-09T04:47:47.067Z,90.6835
2024-05-09T04:48:49.101Z,90.6413
2024-05-09T04:49:51.035Z,90.6467
2024-05-09T04:50:52.840Z,90.5635
2024-05-09T04:51:54.603Z,90.5813
2024-05-09T04:52:56.387Z,90.6924
2024-05-09T04:53:58.106Z,90.7918
2024-05-09T04:54:59.899Z,90.7957
2024-05-09T04:56:01.672Z,90.8080
2024-05-09T04:57:03.406Z,90.8752
2024-05-09T04:58:05.082Z,91.0193
2024-05-09T04:59:06.972Z,90.9154
2024-05-09T05:00:14.611Z,90.8050
2024-05-09T05:01:10.849Z,90.8576
2024-05-09T05:02:12.821Z,90.8169
2024-05-09T05:03:16.029Z,90.7460
2024-05-09T05:04:15.855Z,90.6257
2024-05-09T05:05:17.902Z,90.6959
2024-05-09T05:06:19.824Z,90.6176
2024-05-09T05:07:21.574Z,90.5751
2024-05-09T05:08:23.417Z,90.6758
2024-05-09T05:09:25.128Z,90.5526
2024-05-09T05:10:33.592Z,90.7281
2024-05-09T05:11:29.145Z,90.8030
2024-05-09T05:12:31.163Z,90.7935
2024-05-09T05:13:33.143Z,90.8612
2024-05-09T05:14:34.954Z,90.8493
2024-05-09T05:15:36.771Z,90.9414
2024-05-09T05:16:38.514Z,90.8847
2024-05-09T05:17:40.555Z,90.7290
2024-05-09T05:18:42.475Z,90.6455
2024-05-09T05:19:44.543Z,90.6732
2024-05-09T05:20:46.531Z,90.5863
2024-05-09T05:21:48.395Z,90.5379
2024-05-09T05:22:50.246Z,90.5590
2024-05-09T05:23:52.049Z,90.5477
2024-05-09T05:24:53.841Z,90.2993
2024-05-09T05:25:55.991Z,90.4003
2024-05-09T05:26:57.937Z,90.5789
2024-05-09T05:27:59.688Z,90.6179
2024-05-09T05:29:01.528Z,90.5138
2024-05-09T05:30:03.576Z,90.5491
2024-05-09T05:31:04.764Z,90.4979
2024-05-09T05:32:06.652Z,90.6822
2024-05-09T05:33:08.585Z,90.7743
2024-05-09T05:34:10.485Z,90.7457
2024-05-09T05:35:12.340Z,90.7094
2024-05-09T05:36:14.099Z,90.7437
2024-05-09T05:37:15.912Z,90.8660
2024-05-09T05:38:17.968Z,90.6452
2024-05-09T05:39:19.894Z,90.6716
2024-05-09T05:40:28.354Z,90.6335
2024-05-09T05:41:23.850Z,90.5819
2024-05-09T05:42:25.603Z,90.5362
2024-05-09T05:43:27.468Z,90.6464
2024-05-09T05:44:29.299Z,90.8344
2024-05-09T05:45:31.118Z,90.6794
2024-05-09T05:46:32.879Z,90.4908
2024-05-09T05:47:34.971Z,90.5566
2024-05-09T05:48:37.145Z,90.4404
2024-05-09T05:49:39.096Z,90.4297
2024-05-09T05:50:41.072Z,90.4007
2024-05-09T05:51:42.840Z,90.2745
2024-05-09T05:52:44.645Z,90.3003
2024-05-09T05:53:46.575Z,90.1336
2024-05-09T05:54:48.363Z,90.0522
2024-05-09T05:55:50.206Z,90.1615
2024-05-09T05:56:52.056Z,90.1107
2024-05-09T05:57:53.853Z,90.2375
2024-05-09T05:58:55.660Z,90.2730
2024-05-09T05:59:57.429Z,90.1638
2024-05-09T06:00:59.230Z,90.1866
2024-05-09T06:02:01.193Z,90.2522
2024-05-09T06:03:03.143Z,90.2474
2024-05-09T06:04:05.076Z,90.2592
2024-05-09T06:05:06.872Z,90.2645
2024-05-09T06:06:08.631Z,90.1389
2024-05-09T06:07:10.417Z,90.0587
2024-05-09T06:08:12.392Z,90.0307
2024-05-09T06:09:14.326Z,89.7344
2024-05-09T06:10:21.466Z,89.3867
2024-05-09T06:11:18.321Z,89.0869
2024-05-09T06:12:20.165Z,89.0798
2024-05-09T06:13:21.995Z,89.1549
2024-05-09T06:14:23.852Z,89.1551
2024-05-09T06:15:25.861Z,88.9995
2024-05-09T06:16:27.614Z,88.8751
2024-05-09T06:17:29.493Z,88.7981
2024-05-09T06:18:31.502Z,88.8183
2024-05-09T06:19:33.702Z,88.7490
2024-05-09T06:20:37.903Z,88.3832
2024-05-09T06:21:37.823Z,88.3746
2024-05-09T06:22:39.603Z,88.2352
2024-05-09T06:23:41.363Z,88.0265
2024-05-09T06:24:43.178Z,87.6249
2024-05-09T06:25:45.099Z,87.5221
2024-05-09T06:26:46.868Z,87.0117
2024-05-09T06:27:48.669Z,86.6131
2024-05-09T06:28:50.523Z,86.4409
2024-05-09T06:29:52.286Z,86.4102
2024-05-09T06:30:54.058Z,86.1014
2024-05-09T06:31:59.523Z,85.8040
2024-05-09T06:32:56.367Z,85.8333
2024-05-09T06:33:58.382Z,85.1438
2024-05-09T06:35:00.296Z,84.0339
2024-05-09T06:36:02.050Z,84.3911
2024-05-09T06:37:03.816Z,84.1943
2024-05-09T06:38:05.696Z,83.7700
2024-05-09T06:39:07.517Z,83.6573
2024-05-09T06:40:10.081Z,83.6842
2024-05-09T06:41:09.317Z,83.3742
2024-05-09T06:42:11.077Z,83.2163
2024-05-09T06:43:12.970Z,83.7425
2024-05-09T06:44:14.793Z,83.7634
2024-05-09T06:45:16.587Z,83.8024
2024-05-09T06:46:18.386Z,83.8988
2024-05-09T06:47:20.358Z,83.7894
2024-05-09T06:48:22.944Z,83.9035
2024-05-09T06:49:22.475Z,84.1739
2024-05-09T06:50:28.146Z,83.2190
2024-05-09T06:51:26.480Z,81.1875
2024-05-09T06:52:28.307Z,80.7721
2024-05-09T06:53:30.105Z,81.5785
2024-05-09T06:54:31.890Z,81.8642
2024-05-09T06:55:33.742Z,82.2050
2024-05-09T06:56:35.575Z,83.0058
2024-05-09T06:57:39.179Z,83.1569
2024-05-09T06:58:37.698Z,83.5389
2024-05-09T06:59:39.484Z,83.8796
2024-05-09T07:00:42.216Z,84.2628
2024-05-09T07:01:41.524Z,84.1747
2024-05-09T07:02:43.365Z,84.8591
2024-05-09T07:03:45.238Z,84.6738
2024-05-09T07:04:47.199Z,84.4174
2024-05-09T07:05:49.865Z,84.7154
2024-05-09T07:06:49.127Z,84.8002
2024-05-09T07:07:50.935Z,84.6788
2024-05-09T07:08:52.863Z,84.7717
2024-05-09T07:09:54.666Z,85.0308
2024-05-09T07:10:56.506Z,85.1163
2024-05-09T07:11:58.370Z,84.9197
2024-05-09T07:13:00.180Z,85.0296
2024-05-09T07:14:02.001Z,84.8029
2024-05-09T07:15:03.814Z,84.4058
2024-05-09T07:16:05.591Z,84.5204
2024-05-09T07:17:07.521Z,84.6661
2024-05-09T07:18:09.524Z,84.6202
2024-05-09T07:19:11.612Z,84.5438
2024-05-09T07:20:23.027Z,84.6714
2024-05-09T07:21:15.776Z,84.6560
2024-05-09T07:22:17.653Z,84.4176
2024-05-09T07:23:19.655Z,84.5033
2024-05-09T07:24:21.725Z,84.0545
2024-05-09T07:25:23.521Z,84.0019
2024-05-09T07:26:25.385Z,83.8822
2024-05-09T07:27:27.207Z,83.5661
2024-05-09T07:28:28.968Z,82.9383
2024-05-09T07:29:30.847Z,83.0639
2024-05-09T07:30:34.399Z,82.8869
2024-05-09T07:31:34.233Z,82.6222
2024-05-09T07:32:36.141Z,82.4036
2024-05-09T07:33:37.957Z,81.6989
2024-05-09T07:34:39.841Z,82.3119
2024-05-09T07:35:41.669Z,82.4150
2024-05-09T07:36:43.393Z,82.2834
2024-05-09T07:37:45.218Z,82.3765
2024-05-09T07:38:46.997Z,82.7297
2024-05-09T07:39:48.795Z,82.9197
2024-05-09T07:40:50.637Z,83.2281
2024-05-09T07:41:52.522Z,83.6158
2024-05-09T07:42:54.290Z,83.7561
2024-05-09T07:43:56.089Z,83.3439
2024-05-09T07:45:14.551Z,83.5608
2024-05-09T07:46:28.567Z,82.8153
2024-05-09T07:53:29.268Z,81.7323
2024-05-09T07:53:37.744Z,82.7328
2024-05-09T07:54:17.031Z,82.1718
2024-05-09T07:55:19.220Z,82.3033
2024-05-09T07:56:22.831Z,82.1266
2024-05-09T07:57:23.109Z,82.3298
2024-05-09T07:58:24.898Z,81.4859
2024-05-09T07:59:26.656Z,81.3640
2024-05-09T08:00:31.516Z,81.1298
2024-05-09T08:01:28.882Z,81.2355
2024-05-09T08:02:30.841Z,80.4773
2024-05-09T08:03:32.976Z,80.3584
2024-05-09T08:04:35.015Z,80.1846
2024-05-09T08:05:37.095Z,79.6286
2024-05-09T08:06:39.097Z,79.4554
2024-05-09T08:07:40.952Z,78.9945
2024-05-09T08:08:42.799Z,78.0805
2024-05-09T08:09:44.665Z,78.1921
2024-05-09T08:10:46.602Z,78.5949
2024-05-09T08:11:48.490Z,78.3500
2024-05-09T08:12:50.487Z,78.6703
2024-05-09T08:13:52.246Z,78.8819
2024-05-09T08:14:54.086Z,78.0624
2024-05-09T08:15:55.945Z,79.1031
2024-05-09T08:16:57.763Z,79.3772
2024-05-09T08:17:59.783Z,79.7896
2024-05-09T08:19:01.731Z,79.7744
2024-05-09T08:20:05.432Z,79.8150
2024-05-09T08:21:04.678Z,79.7299
2024-05-09T08:22:06.794Z,79.1153
2024-05-09T08:23:08.754Z,80.2409
2024-05-09T08:24:10.723Z,79.8196
2024-05-09T08:25:14.161Z,79.2622
2024-05-09T08:26:13.586Z,79.6927
2024-05-09T08:27:15.411Z,80.1552
2024-05-09T08:28:17.388Z,80.2314
2024-05-09T08:29:19.264Z,80.3350
2024-05-09T08:30:25.482Z,80.2099
2024-05-09T08:31:23.554Z,80.3690
2024-05-09T08:32:25.402Z,80.5888
2024-05-09T08:33:27.396Z,80.5327
2024-05-09T08:34:29.480Z,80.9013
2024-05-09T08:35:31.484Z,80.7644
2024-05-09T08:36:33.554Z,80.8204
2024-05-09T08:37:38.783Z,80.7172
2024-05-09T08:38:37.443Z,80.5727
2024-05-09T08:39:39.267Z,80.8237
2024-05-09T08:40:41.259Z,80.5002
2024-05-09T08:41:43.181Z,80.3206
2024-05-09T08:42:45.040Z,80.5259
2024-05-09T08:43:46.910Z,79.3742
2024-05-09T08:44:48.829Z,79.1665
2024-05-09T08:45:50.737Z,78.8194
2024-05-09T08:46:52.533Z,78.6166
2024-05-09T08:47:54.438Z,78.5170
2024-05-09T08:48:56.351Z,77.7528
2024-05-09T08:49:58.280Z,77.3750
2024-05-09T08:51:00.161Z,77.8633
2024-05-09T08:52:02.059Z,77.7895
2024-05-09T08:53:03.888Z,78.5675
2024-05-09T08:54:05.696Z,77.6493
2024-05-09T08:55:07.617Z,78.0101
2024-05-09T08:56:09.440Z,78.4360
2024-05-09T08:57:11.229Z,78.4500
2024-05-09T08:58:13.094Z,78.2143
2024-05-09T08:59:15.114Z,78.0676
2024-05-09T09:00:25.603Z,78.6003
2024-05-09T09:01:19.327Z,78.6715
2024-05-09T09:02:21.492Z,78.2046
2024-05-09T09:03:23.528Z,77.4524
2024-05-09T09:04:25.557Z,77.1351
2024-05-09T09:05:27.792Z,76.6098
2024-05-09T09:06:29.682Z,77.1191
2024-05-09T09:07:31.635Z,76.9904
2024-05-09T09:08:33.548Z,77.5459
2024-05-09T09:09:35.360Z,78.2800
2024-05-09T09:10:37.251Z,78.6315
2024-05-09T09:11:38.998Z,79.2718
2024-05-09T09:12:40.788Z,79.7916
2024-05-09T09:13:42.635Z,79.4926
2024-05-09T09:14:44.476Z,79.5217
2024-05-09T09:15:46.387Z,78.8169
2024-05-09T09:16:48.165Z,78.5780
2024-05-09T09:17:50.067Z,78.1023
2024-05-09T09:18:52.477Z,77.7775
2024-05-09T09:19:54.822Z,77.5444
2024-05-09T09:20:56.802Z,77.7680
2024-05-09T09:21:58.558Z,77.8735
2024-05-09T09:23:00.613Z,78.0538
2024-05-09T09:24:02.456Z,77.8376
2024-05-09T09:25:04.394Z,77.8985
2024-05-09T09:26:06.288Z,77.8524
2024-05-09T09:27:08.051Z,77.9428
2024-05-09T09:28:10.129Z,77.4922
2024-05-09T09:29:12.004Z,77.0600
2024-05-09T09:30:27.680Z,76.2576
2024-05-09T09:31:16.122Z,75.7278
2024-05-09T09:32:18.110Z,75.4794
2024-05-09T09:33:19.994Z,75.3720
2024-05-09T09:34:22.040Z,74.9478
2024-05-09T09:35:23.852Z,75.0425
2024-05-09T09:36:25.809Z,75.2690
2024-05-09T09:37:27.608Z,74.4331
2024-05-09T09:38:29.651Z,74.3460
2024-05-09T09:39:31.520Z,74.8055
2024-05-09T09:40:35.902Z,75.5734
2024-05-09T09:41:35.590Z,74.9791
2024-05-09T09:42:37.439Z,75.1286
2024-05-09T09:43:39.404Z,74.8803
2024-05-09T09:44:42.373Z,75.1325
2024-05-09T09:45:41.326Z,75.1760
2024-05-09T09:46:43.147Z,75.2474
2024-05-09T09:47:45.211Z,75.0503
2024-05-09T09:48:47.332Z,74.6743
2024-05-09T09:49:49.235Z,74.2050
2024-05-09T09:50:51.190Z,74.4160
2024-05-09T09:51:53.137Z,74.0292
2024-05-09T09:52:54.972Z,73.4906
2024-05-09T09:53:56.766Z,74.3819
2024-05-09T09:54:56.918Z,73.4767
2024-05-09T09:55:58.652Z,72.2659
2024-05-09T09:57:00.452Z,71.1342
2024-05-09T09:58:02.461Z,71.0895
2024-05-09T09:59:04.281Z,71.2256
2024-05-09T10:00:09.571Z,71.5503
2024-05-09T10:01:08.829Z,72.3081
2024-05-09T10:02:10.994Z,70.7265
2024-05-09T10:03:13.314Z,70.1486
2024-05-09T10:04:15.309Z,69.8844
2024-05-09T10:05:17.222Z,68.9187
2024-05-09T10:06:19.118Z,68.4885
2024-05-09T10:07:21.187Z,69.2160
2024-05-09T10:08:23.119Z,68.2939
2024-05-09T10:09:25.036Z,68.1351
2024-05-09T10:10:31.728Z,67.1185
2024-05-09T10:11:29.534Z,67.9812
2024-05-09T10:12:31.554Z,68.5293
2024-05-09T10:13:33.450Z,68.8496
2024-05-09T10:14:35.396Z,68.8715
2024-05-09T10:15:37.429Z,69.8199
2024-05-09T10:16:39.234Z,68.7374
2024-05-09T10:17:41.296Z,67.9585
2024-05-09T10:18:43.570Z,69.6051
2024-05-09T10:19:45.798Z,69.6327
2024-05-09T10:20:47.675Z,69.6668
2024-05-09T10:21:49.737Z,70.2456
2024-05-09T10:22:51.740Z,69.6916
2024-05-09T10:23:53.806Z,68.9102
2024-05-09T10:24:55.740Z,68.2601
2024-05-09T10:25:57.584Z,68.3438
2024-05-09T10:26:59.438Z,68.1600
2024-05-09T10:28:01.480Z,67.5518
2024-05-09T10:29:03.584Z,67.0436
2024-05-09T10:30:11.504Z,66.6427
2024-05-09T10:31:07.964Z,67.4349
2024-05-09T10:32:09.958Z,66.4864
2024-05-09T10:33:12.180Z,66.8972
2024-05-09T10:34:14.289Z,67.1214
2024-05-09T10:35:16.284Z,66.9580
2024-05-09T10:36:18.173Z,67.7699
2024-05-09T10:37:20.280Z,68.4975
2024-05-09T10:38:22.124Z,69.2604
2024-05-09T10:39:24.053Z,68.9683
2024-05-09T10:40:31.096Z,69.0889
2024-05-09T10:41:28.396Z,69.6305
2024-05-09T10:42:30.308Z,69.6227
2024-05-09T10:43:32.420Z,69.9426
2024-05-09T10:44:34.424Z,69.6823
2024-05-09T10:45:36.467Z,69.6599
2024-05-09T10:46:38.298Z,70.3313
2024-05-09T10:47:40.324Z,71.0256
2024-05-09T10:48:42.562Z,71.2457
2024-05-09T10:49:44.564Z,71.4330
2024-05-09T10:50:46.399Z,71.0251
2024-05-09T10:51:48.380Z,70.6593
2024-05-09T10:52:50.463Z,70.2076
2024-05-09T10:53:52.298Z,69.9713
2024-05-09T10:54:54.482Z,69.7885
2024-05-09T10:55:56.402Z,69.3403
2024-05-09T10:56:58.199Z,68.7846
2024-05-09T10:58:00.333Z,68.2492
2024-05-09T10:59:02.296Z,67.9241
2024-05-09T11:00:06.307Z,65.9677
2024-05-09T11:01:06.662Z,65.3111
2024-05-09T11:02:06.752Z,66.0198
2024-05-09T11:03:08.797Z,66.3246
2024-05-09T11:04:10.775Z,65.7472
2024-05-09T11:05:12.941Z,65.7577
2024-05-09T11:06:14.905Z,64.5127
2024-05-09T11:07:17.076Z,64.8028
2024-05-09T11:08:18.923Z,65.5054
2024-05-09T11:09:20.867Z,65.1445
2024-05-09T11:10:55.334Z,65.0248
2024-05-09T11:11:57.365Z,64.8807
2024-05-09T11:12:59.445Z,65.1435
2024-05-09T11:14:01.295Z,64.6143
2024-05-09T11:15:03.240Z,64.5167
2024-05-09T11:16:05.361Z,64.6677
2024-05-09T11:17:07.430Z,65.8450
2024-05-09T11:18:09.319Z,66.3522
2024-05-09T11:19:11.276Z,66.1533
2024-05-09T11:20:19.660Z,65.4104
2024-05-09T11:21:15.712Z,65.9552
2024-05-09T11:22:17.769Z,64.2204
2024-05-09T11:23:19.717Z,63.2567
2024-05-09T11:24:21.525Z,62.5804
2024-05-09T11:25:23.489Z,62.9898
2024-05-09T11:26:25.605Z,63.3686
2024-05-09T11:27:27.465Z,63.1737
2024-05-09T11:28:29.273Z,62.6793
2024-05-09T11:29:31.103Z,62.5698
2024-05-09T11:30:32.917Z,63.9404
2024-05-09T11:31:35.019Z,64.5533
2024-05-09T11:32:37.066Z,65.7612
2024-05-09T11:33:39.403Z,65.0045
2024-05-09T11:34:41.547Z,65.3185
2024-05-09T11:35:43.543Z,64.8995
2024-05-09T11:36:45.589Z,64.7940
2024-05-09T11:37:47.414Z,65.2334
2024-05-09T11:38:49.519Z,64.3299
2024-05-09T11:39:51.553Z,64.8497
2024-05-09T11:40:53.428Z,65.4296
2024-05-09T11:41:55.409Z,66.3159
2024-05-09T11:42:57.347Z,65.4079
2024-05-09T11:43:59.197Z,64.7055
2024-05-09T11:45:01.313Z,63.8104
2024-05-09T11:46:03.783Z,63.5956
2024-05-09T11:47:03.573Z,63.4690
2024-05-09T11:48:05.707Z,64.1041
2024-05-09T11:49:07.885Z,64.0943
2024-05-09T11:50:15.999Z,64.0563
2024-05-09T11:51:11.904Z,64.7453
2024-05-09T11:52:13.991Z,64.3490
2024-05-09T11:53:16.054Z,65.6069
2024-05-09T11:54:17.860Z,66.3290
2024-05-09T11:55:19.903Z,66.9817
2024-05-09T11:56:22.010Z,67.2204
2024-05-09T11:57:23.957Z,67.4827
2024-05-09T11:58:25.796Z,67.7780
2024-05-09T11:59:27.618Z,68.3334
2024-05-09T12:00:36.513Z,66.9333
2024-05-09T12:01:32.385Z,67.0919
2024-05-09T12:02:34.414Z,67.2931
2024-05-09T12:03:36.628Z,66.1003
2024-05-09T12:04:38.785Z,66.0696
2024-05-09T12:05:41.065Z,65.6404
2024-05-09T12:06:43.222Z,65.8839
2024-05-09T12:07:45.160Z,65.9366
2024-05-09T12:08:46.956Z,65.9960
2024-05-09T12:09:48.929Z,65.1446
2024-05-09T12:10:50.885Z,62.8013
2024-05-09T12:11:53.131Z,63.0710
2024-05-09T12:12:55.278Z,61.8424
2024-05-09T12:13:57.329Z,61.9899
2024-05-09T12:14:59.291Z,63.2844
2024-05-09T12:16:01.260Z,64.2600
2024-05-09T12:17:03.427Z,63.8003
2024-05-09T12:18:05.505Z,64.2537
2024-05-09T12:19:07.588Z,64.5323
2024-05-09T12:20:17.425Z,64.4506
2024-05-09T12:21:11.776Z,64.9428
2024-05-09T12:22:13.719Z,64.4549
2024-05-09T12:23:15.644Z,65.0918
2024-05-09T12:24:18.531Z,63.4738
2024-05-09T12:25:18.113Z,62.7622
2024-05-09T12:26:20.028Z,63.0727
2024-05-09T12:27:22.167Z,63.0802
2024-05-09T12:28:24.168Z,63.0139
2024-05-09T12:29:26.199Z,62.5820
2024-05-09T12:30:35.771Z,61.8445
2024-05-09T12:31:30.577Z,62.7768
2024-05-09T12:32:32.657Z,63.0900
2024-05-09T12:33:34.729Z,62.6458